createdAt,value
2023-04-15T00:02:25.518Z,12.34
2023-04-15T00:04:53.317Z,12.65
2023-04-15T00:07:20.750Z,12.72
2023-04-15T00:09:48.268Z,12.80
2023-04-15T00:12:16.238Z,13.07
2023-04-15T00:14:43.662Z,13.45
2023-04-15T00:17:11.268Z,13.22
2023-04-15T00:19:38.872Z,12.99
2023-04-15T00:22:07.112Z,12.62
2023-04-15T00:24:34.620Z,12.66
2023-04-15T00:27:02.414Z,13.11
2023-04-15T00:29:31.130Z,13.07
2023-04-15T00:31:58.744Z,12.84
2023-04-15T00:34:27.924Z,12.89
2023-04-15T00:36:55.517Z,12.33
2023-04-15T00:39:23.293Z,12.26
2023-04-15T00:41:50.889Z,12.16
2023-04-15T00:44:19.010Z,12.18
2023-04-15T00:46:48.207Z,12.38
2023-04-15T00:49:15.664Z,12.29
2023-04-15T00:51:43.278Z,12.31
2023-04-15T00:54:11.654Z,12.45
2023-04-15T00:56:39.877Z,12.30
2023-04-15T00:59:08.010Z,12.27
2023-04-15T01:01:36.649Z,12.15
2023-04-15T01:04:05.385Z,11.93
2023-04-15T01:06:33.622Z,11.98
2023-04-15T01:09:01.827Z,12.14
2023-04-15T01:11:30.737Z,12.02
2023-04-15T01:13:58.866Z,11.83
2023-04-15T01:16:27.703Z,12.28
2023-04-15T01:18:55.790Z,12.52
2023-04-15T01:21:23.859Z,12.37
2023-04-15T01:23:53.515Z,11.99
2023-04-15T01:26:22.295Z,12.02
2023-04-15T01:28:50.667Z,11.79
2023-04-15T01:31:19.136Z,11.66
2023-04-15T01:33:47.166Z,11.58
2023-04-15T01:36:34.379Z,11.45
2023-04-15T01:39:02.294Z,11.58
2023-04-15T01:41:32.981Z,11.53
2023-04-15T01:44:02.083Z,11.44
2023-04-15T01:46:33.957Z,11.62
2023-04-15T01:49:02.933Z,11.80
2023-04-15T01:51:34.255Z,11.94
2023-04-15T01:54:03.181Z,12.35
2023-04-15T01:56:32.330Z,11.96
2023-04-15T01:59:01.880Z,12.01
2023-04-15T02:01:31.263Z,11.99
2023-04-15T02:04:01.817Z,11.97
2023-04-15T02:06:33.497Z,11.57
2023-04-15T02:09:02.564Z,11.66
2023-04-15T02:11:31.538Z,11.50
2023-04-15T02:14:00.439Z,11.74
2023-04-15T02:16:29.243Z,11.84
2023-04-15T02:18:58.274Z,11.69
2023-04-15T02:21:27.454Z,11.92
2023-04-15T02:23:56.552Z,11.68
2023-04-15T02:26:25.776Z,11.54
2023-04-15T02:28:56.498Z,11.81
2023-04-15T02:31:28.024Z,11.60
2023-04-15T02:33:56.967Z,11.72
2023-04-15T02:36:27.160Z,11.53
2023-04-15T02:38:55.973Z,11.82
2023-04-15T02:41:27.828Z,11.65
2023-04-15T02:43:57.385Z,11.63
2023-04-15T02:46:35.267Z,11.63
2023-04-15T02:49:09.267Z,11.28
2023-04-15T02:51:38.963Z,11.57
2023-04-15T02:54:08.817Z,11.37
2023-04-15T02:56:37.590Z,11.04
2023-04-15T02:59:06.874Z,10.64
2023-04-15T03:01:35.986Z,11.14
2023-04-15T03:04:04.834Z,11.03
2023-04-15T03:06:33.666Z,10.93
2023-04-15T03:09:02.698Z,11.38
2023-04-15T03:11:40.552Z,11.50
2023-04-15T03:14:11.305Z,11.23
2023-04-15T03:16:44.280Z,11.31
2023-04-15T03:19:15.643Z,11.05
2023-04-15T03:21:45.953Z,11.02
2023-04-15T03:24:15.844Z,10.91
2023-04-15T03:26:44.736Z,10.76
2023-04-15T03:29:17.394Z,10.42
2023-04-15T03:31:47.031Z,10.62
2023-04-15T03:34:15.976Z,10.56
2023-04-15T03:36:44.700Z,10.49
2023-04-15T03:39:13.687Z,10.55
2023-04-15T03:41:42.564Z,10.39
2023-04-15T03:44:11.489Z,10.42
2023-04-15T03:46:40.413Z,10.62
2023-04-15T03:49:09.408Z,10.85
2023-04-15T03:51:38.413Z,10.75
2023-04-15T03:54:07.162Z,10.45
2023-04-15T03:56:35.959Z,10.42
2023-04-15T03:59:04.722Z,10.38
2023-04-15T04:01:33.487Z,10.71
2023-04-15T04:04:02.504Z,10.68
2023-04-15T04:06:32.879Z,11.03
2023-04-15T04:09:01.909Z,10.81
2023-04-15T04:11:31.836Z,10.39
2023-04-15T04:14:00.943Z,10.00
2023-04-15T04:16:29.934Z,10.12
2023-04-15T04:18:58.783Z,10.08
2023-04-15T04:21:28.343Z,10.32
2023-04-15T04:23:57.024Z,10.06
2023-04-15T04:26:26.025Z,10.09
2023-04-15T04:28:54.793Z,10.17
2023-04-15T04:31:23.615Z,10.08
2023-04-15T04:33:52.451Z,10.05
2023-04-15T04:36:21.181Z,9.89
2023-04-15T04:38:50.100Z,9.88
2023-04-15T04:41:19.147Z,9.96
2023-04-15T04:43:48.186Z,9.86
2023-04-15T04:46:17.223Z,9.90
2023-04-15T04:48:47.131Z,10.25
2023-04-15T04:51:16.153Z,9.89
2023-04-15T04:53:45.049Z,9.99
2023-04-15T04:56:13.826Z,10.03
2023-04-15T04:58:42.627Z,10.07
2023-04-15T05:01:14.551Z,9.89
2023-04-15T05:03:43.576Z,10.18
2023-04-15T05:06:12.737Z,9.95
2023-04-15T05:08:42.006Z,9.90
2023-04-15T05:11:11.293Z,9.74
2023-04-15T05:13:40.101Z,9.79
2023-04-15T05:16:09.643Z,9.83
2023-04-15T05:18:38.710Z,9.80
2023-04-15T05:21:07.748Z,9.96
2023-04-15T05:23:36.528Z,10.10
2023-04-15T05:26:05.383Z,10.04
2023-04-15T05:28:34.248Z,10.20
2023-04-15T05:31:03.149Z,10.10
2023-04-15T05:33:32.019Z,10.18
2023-04-15T05:36:01.258Z,10.34
2023-04-15T05:38:30.012Z,10.32
2023-04-15T05:40:58.879Z,10.57
2023-04-15T05:43:27.603Z,10.35
2023-04-15T05:45:56.634Z,10.41
2023-04-15T05:48:25.385Z,10.72
2023-04-15T05:50:54.591Z,10.63
2023-04-15T05:53:23.578Z,10.75
2023-04-15T05:55:52.953Z,10.94
2023-04-15T05:58:21.769Z,11.02
2023-04-15T06:00:51.493Z,10.85
2023-04-15T06:03:25.869Z,11.19
2023-04-15T06:05:54.962Z,10.64
2023-04-15T06:08:23.899Z,11.09
2023-04-15T06:10:52.719Z,10.93
2023-04-15T06:13:21.620Z,11.14
2023-04-15T06:15:50.597Z,11.64
2023-04-15T06:18:20.187Z,12.00
2023-04-15T06:20:48.968Z,12.04
2023-04-15T06:23:18.045Z,11.99
2023-04-15T06:25:46.866Z,12.06
2023-04-15T06:28:15.696Z,12.13
2023-04-15T06:30:44.682Z,12.12
2023-04-15T06:33:13.901Z,12.07
2023-04-15T06:35:42.652Z,12.07
2023-04-15T06:38:12.365Z,12.22
2023-04-15T06:40:41.264Z,12.41
2023-04-15T06:43:10.377Z,12.30
2023-04-15T06:45:39.570Z,12.47
2023-04-15T06:48:08.597Z,12.50
2023-04-15T06:50:37.796Z,12.73
2023-04-15T06:53:06.699Z,13.06
2023-04-15T06:55:35.464Z,12.98
2023-04-15T06:58:04.175Z,13.24
2023-04-15T07:00:34.014Z,13.69
2023-04-15T07:03:03.863Z,14.05
2023-04-15T07:05:33.622Z,14.37
2023-04-15T07:08:02.518Z,14.22
2023-04-15T07:10:31.600Z,13.65
2023-04-15T07:13:01.143Z,13.94
2023-04-15T07:15:30.154Z,14.00
2023-04-15T07:17:58.924Z,14.26
2023-04-15T07:20:27.587Z,14.40
2023-04-15T07:22:56.493Z,15.12
2023-04-15T07:25:25.850Z,14.83
2023-04-15T07:27:54.669Z,14.46
2023-04-15T07:30:23.497Z,14.77
2023-04-15T07:32:52.802Z,14.28
2023-04-15T07:35:21.802Z,14.45
2023-04-15T07:37:50.687Z,14.78
2023-04-15T07:40:19.876Z,14.79
2023-04-15T07:42:49.556Z,14.73
2023-04-15T07:45:18.731Z,15.16
2023-04-15T07:47:47.562Z,15.09
2023-04-15T07:50:17.352Z,15.63
2023-04-15T07:52:46.569Z,14.90
2023-04-15T07:55:17.693Z,15.07
2023-04-15T07:57:47.471Z,15.37
2023-04-15T08:00:16.650Z,15.26
2023-04-15T08:02:47.026Z,15.73
2023-04-15T08:05:15.947Z,15.52
2023-04-15T08:07:44.891Z,15.34
2023-04-15T08:10:14.678Z,15.49
2023-04-15T08:12:43.570Z,15.56
2023-04-15T08:15:13.220Z,16.09
2023-04-15T08:17:42.121Z,15.96
2023-04-15T08:20:13.332Z,15.84
2023-04-15T08:22:42.617Z,16.06
2023-04-15T08:25:11.439Z,16.23
2023-04-15T08:27:40.185Z,16.35
2023-04-15T08:30:09.627Z,15.89
2023-04-15T08:32:38.852Z,16.10
2023-04-15T08:35:07.997Z,16.30
2023-04-15T08:37:36.894Z,16.25
2023-04-15T08:40:06.793Z,16.14
2023-04-15T08:42:44.967Z,16.93
2023-04-15T08:45:14.041Z,16.98
2023-04-15T08:47:44.592Z,17.20
2023-04-15T08:50:15.325Z,16.51
2023-04-15T08:52:44.175Z,16.55
2023-04-15T08:55:14.333Z,16.80
2023-04-15T08:57:43.256Z,16.97
2023-04-15T09:00:14.258Z,16.75
2023-04-15T09:02:43.581Z,16.66
2023-04-15T09:05:12.984Z,17.23
2023-04-15T09:07:41.879Z,17.46
2023-04-15T09:10:10.948Z,17.65
2023-04-15T09:12:40.113Z,17.94
2023-04-15T09:15:12.589Z,17.78
2023-04-15T09:17:45.819Z,17.65
2023-04-15T09:20:16.436Z,18.00
2023-04-15T09:22:47.919Z,18.16
2023-04-15T09:25:30.051Z,18.02
2023-04-15T09:28:01.851Z,17.73
2023-04-15T09:30:30.909Z,18.14
2023-04-15T09:33:11.036Z,17.62
2023-04-15T09:35:40.209Z,18.10
2023-04-15T09:38:10.204Z,17.70
2023-04-15T09:40:42.261Z,17.75
2023-04-15T09:43:14.486Z,17.81
2023-04-15T09:45:55.150Z,18.01
2023-04-15T09:48:31.761Z,18.48
2023-04-15T09:51:02.266Z,18.35
2023-04-15T09:53:42.716Z,18.87
2023-04-15T09:56:41.629Z,18.42
2023-04-15T09:59:10.435Z,18.51
2023-04-15T10:01:42.684Z,18.51
2023-04-15T10:04:11.897Z,18.89
2023-04-15T10:06:41.328Z,18.58
2023-04-15T10:09:10.326Z,18.92
2023-04-15T10:11:39.877Z,18.84
2023-04-15T10:14:09.972Z,18.72
2023-04-15T10:16:43.214Z,18.56
2023-04-15T10:19:12.313Z,18.62
2023-04-15T10:21:41.785Z,19.17
2023-04-15T10:24:11.121Z,18.85
2023-04-15T10:26:40.424Z,18.99
2023-04-15T10:29:10.776Z,19.00
2023-04-15T10:31:41.195Z,19.17
2023-04-15T10:34:11.517Z,19.19
2023-04-15T10:36:40.527Z,18.80
2023-04-15T10:39:34.538Z,19.16
2023-04-15T10:42:13.482Z,18.52
2023-04-15T10:44:44.904Z,19.18
2023-04-15T10:47:21.586Z,19.03
2023-04-15T10:50:01.649Z,18.80
2023-04-15T10:52:30.636Z,19.09
2023-04-15T10:55:12.324Z,18.89
2023-04-15T10:57:43.554Z,19.43
2023-04-15T11:00:24.229Z,18.85
2023-04-15T11:02:57.671Z,18.49
2023-04-15T11:05:49.998Z,18.77
2023-04-15T11:08:19.546Z,18.80
2023-04-15T11:10:52.870Z,19.20
2023-04-15T11:13:22.888Z,18.66
2023-04-15T11:15:52.149Z,19.07
2023-04-15T11:18:26.332Z,18.54
2023-04-15T11:20:57.675Z,18.56
2023-04-15T11:23:40.043Z,18.75
2023-04-15T11:26:12.451Z,18.52
2023-04-15T11:28:45.988Z,18.98
2023-04-15T11:31:18.053Z,19.01
2023-04-15T11:33:59.454Z,19.52
2023-04-15T11:36:31.905Z,19.50
2023-04-15T11:39:01.261Z,19.14
2023-04-15T11:41:30.441Z,19.59
2023-04-15T11:43:59.293Z,19.34
2023-04-15T11:46:32.061Z,19.28
2023-04-15T11:49:01.727Z,19.31
2023-04-15T11:51:34.739Z,19.73
2023-04-15T11:54:02.742Z,19.91
2023-04-15T11:56:30.674Z,19.93
2023-04-15T11:59:00.065Z,19.21
2023-04-15T12:01:33.027Z,19.72
2023-04-15T12:04:01.553Z,19.68
2023-04-15T12:06:35.319Z,20.28
2023-04-15T12:09:15.727Z,20.31
2023-04-15T12:11:44.436Z,20.29
2023-04-15T12:14:13.365Z,20.12
2023-04-15T12:16:51.738Z,20.20
2023-04-15T12:19:26.207Z,20.09
2023-04-15T12:22:00.399Z,19.64
2023-04-15T12:24:32.472Z,20.08
2023-04-15T12:27:11.455Z,19.58
2023-04-15T12:29:40.715Z,19.37
2023-04-15T12:32:08.574Z,19.55
2023-04-15T12:34:38.924Z,19.70
2023-04-15T12:37:09.619Z,19.76
2023-04-15T12:39:40.678Z,20.33
2023-04-15T12:42:14.953Z,20.15
2023-04-15T12:44:45.954Z,20.12
2023-04-15T12:47:13.742Z,20.24
2023-04-15T12:49:42.232Z,20.41
2023-04-15T12:52:09.985Z,20.79
2023-04-15T12:54:37.591Z,20.47
2023-04-15T12:57:07.323Z,20.38
2023-04-15T12:59:35.840Z,20.17
2023-04-15T13:02:05.155Z,20.03
2023-04-15T13:04:32.886Z,20.17
2023-04-15T13:07:02.181Z,20.53
2023-04-15T13:09:29.965Z,20.76
2023-04-15T13:11:58.326Z,20.83
2023-04-15T13:14:25.937Z,20.70
2023-04-15T13:16:54.056Z,20.14
2023-04-15T13:19:21.569Z,19.93
2023-04-15T13:21:49.048Z,20.31
2023-04-15T13:24:17.644Z,20.51
2023-04-15T13:26:45.306Z,20.06
2023-04-15T13:29:14.133Z,19.72
2023-04-15T13:31:41.820Z,19.73
2023-04-15T13:34:09.387Z,19.79
2023-04-15T13:36:36.877Z,19.83
2023-04-15T13:39:05.627Z,19.61
2023-04-15T13:41:33.190Z,19.30
2023-04-15T13:44:00.785Z,19.35
2023-04-15T13:46:28.337Z,19.39
2023-04-15T13:48:55.938Z,19.06
2023-04-15T13:51:23.526Z,19.03
2023-04-15T13:53:53.574Z,19.36
2023-04-15T13:56:21.600Z,19.17
2023-04-15T13:58:49.166Z,19.00
2023-04-15T14:01:16.968Z,18.88
2023-04-15T14:03:44.632Z,18.87
2023-04-15T14:06:12.375Z,19.09
2023-04-15T14:08:40.028Z,18.87
2023-04-15T14:11:07.575Z,18.71
2023-04-15T14:13:35.139Z,19.00
2023-04-15T14:16:03.089Z,18.74
2023-04-15T14:18:30.824Z,18.89
2023-04-15T14:20:58.330Z,18.91
2023-04-15T14:23:25.889Z,18.91
2023-04-15T14:25:53.520Z,18.80
2023-04-15T14:28:21.184Z,18.98
2023-04-15T14:30:48.952Z,19.35
2023-04-15T14:33:16.624Z,19.11
2023-04-15T14:35:44.118Z,19.12
2023-04-15T14:38:11.855Z,19.10
2023-04-15T14:40:41.158Z,18.78
2023-04-15T14:43:08.763Z,19.24
2023-04-15T14:45:39.475Z,19.29
2023-04-15T14:48:10.263Z,19.14
2023-04-15T14:50:38.067Z,19.00
2023-04-15T14:53:06.477Z,19.03
2023-04-15T14:55:33.957Z,18.83
2023-04-15T14:58:02.458Z,19.06
2023-04-15T15:00:30.823Z,19.12
2023-04-15T15:02:58.996Z,19.05
2023-04-15T15:05:26.722Z,18.72
2023-04-15T15:07:54.407Z,18.62
2023-04-15T15:10:34.637Z,18.82
2023-04-15T15:13:10.765Z,18.84
2023-04-15T15:15:39.195Z,18.92
2023-04-15T15:18:07.017Z,18.52
2023-04-15T15:20:35.516Z,18.77
2023-04-15T15:23:03.129Z,18.27
2023-04-15T15:25:30.566Z,18.44
2023-04-15T15:27:58.093Z,18.77
2023-04-15T15:30:25.657Z,18.69
2023-04-15T15:32:53.217Z,18.66
2023-04-15T15:35:22.857Z,18.65
2023-04-15T15:37:50.561Z,18.45
2023-04-15T15:40:18.254Z,18.14
2023-04-15T15:42:47.300Z,17.93
2023-04-15T15:45:14.788Z,17.90
2023-04-15T15:47:43.313Z,17.89
2023-04-15T15:50:11.119Z,17.91
2023-04-15T15:52:38.781Z,17.65
2023-04-15T15:55:06.797Z,17.76
2023-04-15T15:57:34.414Z,18.20
2023-04-15T16:00:11.173Z,18.35
2023-04-15T16:03:05.198Z,18.26
2023-04-15T16:05:27.988Z,17.92
2023-04-15T16:07:55.704Z,17.84
2023-04-15T16:10:23.296Z,17.87
2023-04-15T16:13:12.130Z,17.66
2023-04-15T16:15:43.208Z,17.91
2023-04-15T16:18:14.066Z,17.73
2023-04-15T16:21:02.066Z,17.40
2023-04-15T16:23:29.722Z,17.47
2023-04-15T16:25:57.866Z,17.92
2023-04-15T16:28:27.192Z,17.98
2023-04-15T16:30:55.730Z,17.92
2023-04-15T16:33:23.411Z,17.89
2023-04-15T16:35:52.293Z,17.82
2023-04-15T16:38:19.886Z,17.71
2023-04-15T16:40:58.683Z,17.35
2023-04-15T16:43:27.214Z,17.43
2023-04-15T16:45:54.763Z,17.60
2023-04-15T16:48:22.280Z,17.73
2023-04-15T16:50:49.944Z,17.53
2023-04-15T16:53:17.764Z,17.41
2023-04-15T16:55:46.038Z,17.28
2023-04-15T16:58:13.558Z,17.08
2023-04-15T17:00:41.054Z,16.80
2023-04-15T17:03:08.855Z,16.71
2023-04-15T17:05:39.116Z,16.91
2023-04-15T17:08:06.758Z,16.73
2023-04-15T17:10:34.500Z,16.87
2023-04-15T17:13:02.047Z,16.72
2023-04-15T17:15:29.812Z,16.81
2023-04-15T17:18:12.164Z,16.86
2023-04-15T17:20:42.029Z,16.77
2023-04-15T17:23:09.794Z,16.87
2023-04-15T17:25:37.770Z,16.68
2023-04-15T17:28:05.998Z,16.55
2023-04-15T17:30:34.598Z,16.67
2023-04-15T17:33:57.987Z,16.14
2023-04-15T17:36:29.664Z,16.70
2023-04-15T17:39:18.702Z,16.16
2023-04-15T17:42:11.725Z,16.39
2023-04-15T17:44:59.127Z,16.41
2023-04-15T17:47:48.699Z,16.70
2023-04-15T17:50:38.520Z,16.60
2023-04-15T17:53:25.979Z,16.77
2023-04-15T17:56:19.817Z,16.71
2023-04-15T17:59:23.061Z,16.63
2023-04-15T18:02:23.445Z,16.37
2023-04-15T18:05:20.491Z,16.38
2023-04-15T18:08:09.057Z,16.09
2023-04-15T18:10:56.672Z,16.18
2023-04-15T18:13:44.184Z,16.36
2023-04-15T18:16:32.069Z,16.45
2023-04-15T18:19:19.704Z,15.99
2023-04-15T18:21:48.294Z,16.09
2023-04-15T18:24:16.160Z,15.82
2023-04-15T18:26:43.739Z,16.16
2023-04-15T18:29:11.293Z,16.42
2023-04-15T18:31:38.797Z,16.31
2023-04-15T18:34:07.366Z,15.81
2023-04-15T18:36:35.013Z,15.97
2023-04-15T18:39:02.722Z,15.96
2023-04-15T18:41:30.417Z,15.92
2023-04-15T18:43:57.924Z,15.71
2023-04-15T18:46:25.438Z,15.80
2023-04-15T18:48:52.961Z,15.46
2023-04-15T18:51:20.528Z,15.86
2023-04-15T18:53:48.017Z,15.83
2023-04-15T18:56:15.621Z,15.78
2023-04-15T18:59:19.078Z,15.27
2023-04-15T19:01:32.019Z,14.98
2023-04-15T19:03:59.907Z,15.20
2023-04-15T19:06:28.642Z,15.43
2023-04-15T19:08:58.658Z,15.67
2023-04-15T19:11:26.390Z,15.80
2023-04-15T19:13:54.563Z,15.57
2023-04-15T19:16:22.094Z,15.34
2023-04-15T19:18:49.787Z,15.46
2023-04-15T19:21:17.598Z,15.43
2023-04-15T19:23:45.307Z,15.28
2023-04-15T19:26:12.830Z,15.43
2023-04-15T19:28:40.315Z,15.31
2023-04-15T19:31:07.903Z,15.11
2023-04-15T19:33:35.540Z,15.23
2023-04-15T19:36:05.381Z,14.91
2023-04-15T19:38:36.020Z,14.92
2023-04-15T19:41:04.231Z,14.78
2023-04-15T19:43:32.930Z,14.88
2023-04-15T19:46:00.656Z,14.84
2023-04-15T19:48:28.334Z,15.02
2023-04-15T19:50:57.229Z,15.12
2023-04-15T19:53:25.694Z,15.24
2023-04-15T19:55:53.197Z,15.42
2023-04-15T19:58:20.605Z,15.25
2023-04-15T20:00:48.077Z,15.39
2023-04-15T20:03:16.264Z,14.99
2023-04-15T20:09:24.046Z,15.41
2023-04-15T20:12:47.510Z,15.42
2023-04-15T20:14:39.535Z,14.95
2023-04-15T20:17:07.100Z,14.85
2023-04-15T20:19:34.769Z,14.89
2023-04-15T20:22:02.358Z,14.81
2023-04-15T20:24:29.958Z,14.81
2023-04-15T20:26:57.646Z,14.70
2023-04-15T20:29:25.680Z,14.65
2023-04-15T20:31:53.371Z,14.62
2023-04-15T20:34:21.150Z,14.78
2023-04-15T20:36:48.913Z,14.92
2023-04-15T20:39:34.836Z,15.06
2023-04-15T20:42:02.843Z,15.23
2023-04-15T20:44:30.599Z,14.86
2023-04-15T20:46:58.505Z,14.72
2023-04-15T20:49:26.044Z,14.77
2023-04-15T20:51:53.547Z,14.94
2023-04-15T20:54:21.382Z,14.61
2023-04-15T20:56:48.976Z,14.90
2023-04-15T20:59:16.589Z,14.70
2023-04-15T21:01:44.389Z,14.95
2023-04-15T21:04:11.965Z,15.05
2023-04-15T21:06:39.500Z,15.16
2023-04-15T21:09:07.382Z,14.98
2023-04-15T21:11:46.358Z,15.06
2023-04-15T21:14:22.718Z,14.88
2023-04-15T21:16:50.514Z,14.40
2023-04-15T21:19:18.281Z,14.61
2023-04-15T21:21:46.149Z,14.46
2023-04-15T21:24:14.956Z,14.48
2023-04-15T21:26:42.455Z,14.35
2023-04-15T21:29:11.709Z,14.41
2023-04-15T21:31:40.339Z,14.42
2023-04-15T21:34:08.312Z,14.46
2023-04-15T21:36:36.703Z,14.32
2023-04-15T21:39:06.087Z,14.28
2023-04-15T21:41:33.857Z,14.39
2023-04-15T21:44:01.641Z,14.41
2023-04-15T21:46:33.197Z,14.64
2023-04-15T21:49:03.829Z,14.52
2023-04-15T21:51:32.726Z,14.50
2023-04-15T21:54:00.366Z,14.35
2023-04-15T21:56:28.029Z,14.39
2023-04-15T21:58:57.554Z,14.17
2023-04-15T22:01:26.643Z,13.90
2023-04-15T22:03:54.585Z,14.02
2023-04-15T22:06:22.548Z,14.22
2023-04-15T22:09:10.651Z,14.14
2023-04-15T22:11:38.233Z,14.04
2023-04-15T22:15:00.704Z,14.17
2023-04-15T22:17:28.619Z,14.26
2023-04-15T22:19:56.476Z,14.53
2023-04-15T22:22:26.611Z,14.60
2023-04-15T22:25:03.475Z,14.75
2023-04-15T22:27:31.029Z,14.56
2023-04-15T22:29:59.364Z,14.59
2023-04-15T22:32:27.032Z,14.47
2023-04-15T22:34:55.137Z,14.07
2023-04-15T22:37:24.022Z,14.19
2023-04-15T22:39:52.012Z,14.09
2023-04-15T22:42:19.839Z,14.20
2023-04-15T22:44:47.779Z,14.25
2023-04-15T22:47:15.669Z,14.29
2023-04-15T22:49:45.022Z,14.26
2023-04-15T22:52:23.334Z,14.11
2023-04-15T22:54:57.387Z,14.27
2023-04-15T22:57:25.218Z,14.39
2023-04-15T22:59:52.862Z,14.51
2023-04-15T23:02:20.853Z,14.63
2023-04-15T23:04:49.078Z,14.33
2023-04-15T23:07:19.690Z,14.40
2023-04-15T23:09:47.255Z,14.32
2023-04-15T23:12:15.126Z,14.23
2023-04-15T23:14:43.065Z,14.36
2023-04-15T23:17:11.321Z,14.38
2023-04-15T23:19:38.915Z,14.44
2023-04-15T23:22:10.644Z,14.03
2023-04-15T23:24:41.073Z,14.44
2023-04-15T23:27:08.812Z,14.13
2023-04-15T23:29:36.425Z,13.92
2023-04-15T23:32:04.893Z,13.81
2023-04-15T23:34:32.834Z,13.99
2023-04-15T23:37:01.079Z,13.73
2023-04-15T23:39:30.572Z,13.58
2023-04-15T23:41:58.772Z,13.67
2023-04-15T23:44:28.926Z,13.83
2023-04-15T23:46:57.104Z,13.94
2023-04-15T23:49:24.959Z,14.21
2023-04-15T23:51:52.856Z,14.20
2023-04-15T23:54:20.793Z,14.16
2023-04-15T23:56:48.484Z,14.19
2023-04-15T23:59:16.377Z,14.13
